sensor_id;sensor_type;location;lat;lon;timestamp;P1;durP1;ratioP1;P2;durP2;ratioP2
53674;SDS011;39574;50.534;8.500;2022-07-12T00:04:43;2.7;;;1.3;;
53674;SDS011;39574;50.534;8.500;2022-07-12T00:09:43;2.3;;;1.3;;
53674;SDS011;39574;50.534;8.500;2022-07-12T00:14:42;2.3;;;1.4;;
53674;SDS011;39574;50.534;8.500;2022-07-12T00:19:41;2.5;;;1.5;;
53674;SDS011;39574;50.534;8.500;2022-07-12T00:24:40;2.3;;;1.5;;
53674;SDS011;39574;50.534;8.500;2022-07-12T00:29:40;2.2;;;1.4;;
53674;SDS011;39574;50.534;8.500;2022-07-12T00:34:39;2.0;;;1.3;;
53674;SDS011;39574;50.534;8.500;2022-07-12T00:39:38;2.0;;;1.3;;
53674;SDS011;39574;50.534;8.500;2022-07-12T00:44:37;1.9;;;1.2;;
53674;SDS011;39574;50.534;8.500;2022-07-12T00:49:37;1.9;;;1.3;;
53674;SDS011;39574;50.534;8.500;2022-07-12T00:54:36;2.0;;;1.4;;
53674;SDS011;39574;50.534;8.500;2022-07-12T00:59:35;1.9;;;1.3;;
53674;SDS011;39574;50.534;8.500;2022-07-12T01:04:34;2.0;;;1.3;;
53674;SDS011;39574;50.534;8.500;2022-07-12T01:09:34;1.9;;;1.3;;
53674;SDS011;39574;50.534;8.500;2022-07-12T01:14:33;1.9;;;1.3;;
53674;SDS011;39574;50.534;8.500;2022-07-12T01:19:32;2.2;;;1.3;;
53674;SDS011;39574;50.534;8.500;2022-07-12T01:24:31;2.8;;;1.4;;
53674;SDS011;39574;50.534;8.500;2022-07-12T01:29:30;2.9;;;1.4;;
53674;SDS011;39574;50.534;8.500;2022-07-12T01:34:29;2.7;;;1.5;;
53674;SDS011;39574;50.534;8.500;2022-07-12T01:39:28;2.3;;;1.4;;
53674;SDS011;39574;50.534;8.500;2022-07-12T01:44:28;2.3;;;1.5;;
53674;SDS011;39574;50.534;8.500;2022-07-12T01:49:27;2.3;;;1.5;;
53674;SDS011;39574;50.534;8.500;2022-07-12T01:54:26;2.3;;;1.5;;
53674;SDS011;39574;50.534;8.500;2022-07-12T01:59:25;2.4;;;1.6;;
53674;SDS011;39574;50.534;8.500;2022-07-12T02:04:24;2.3;;;1.6;;
53674;SDS011;39574;50.534;8.500;2022-07-12T02:09:23;2.2;;;1.7;;
53674;SDS011;39574;50.534;8.500;2022-07-12T02:14:23;2.2;;;1.6;;
53674;SDS011;39574;50.534;8.500;2022-07-12T02:19:22;2.1;;;1.4;;
53674;SDS011;39574;50.534;8.500;2022-07-12T02:24:21;2.1;;;1.5;;
53674;SDS011;39574;50.534;8.500;2022-07-12T02:29:20;2.1;;;1.5;;
53674;SDS011;39574;50.534;8.500;2022-07-12T02:34:19;2.2;;;1.5;;
53674;SDS011;39574;50.534;8.500;2022-07-12T02:39:18;2.3;;;1.6;;
53674;SDS011;39574;50.534;8.500;2022-07-12T02:44:17;2.2;;;1.6;;
53674;SDS011;39574;50.534;8.500;2022-07-12T02:49:17;2.1;;;1.6;;
53674;SDS011;39574;50.534;8.500;2022-07-12T02:54:16;2.0;;;1.6;;
53674;SDS011;39574;50.534;8.500;2022-07-12T02:59:15;2.1;;;1.5;;
53674;SDS011;39574;50.534;8.500;2022-07-12T03:04:14;2.8;;;1.6;;
53674;SDS011;39574;50.534;8.500;2022-07-12T03:09:13;3.0;;;1.7;;
53674;SDS011;39574;50.534;8.500;2022-07-12T03:14:12;3.0;;;1.7;;
53674;SDS011;39574;50.534;8.500;2022-07-12T03:19:11;2.6;;;1.6;;
53674;SDS011;39574;50.534;8.500;2022-07-12T03:24:11;2.4;;;1.7;;
53674;SDS011;39574;50.534;8.500;2022-07-12T03:29:10;2.3;;;1.6;;
53674;SDS011;39574;50.534;8.500;2022-07-12T03:34:09;2.2;;;1.6;;
53674;SDS011;39574;50.534;8.500;2022-07-12T03:39:08;2.2;;;1.6;;
53674;SDS011;39574;50.534;8.500;2022-07-12T03:44:07;2.4;;;1.6;;
53674;SDS011;39574;50.534;8.500;2022-07-12T03:49:06;2.7;;;1.7;;
53674;SDS011;39574;50.534;8.500;2022-07-12T03:54:05;3.2;;;1.7;;
53674;SDS011;39574;50.534;8.500;2022-07-12T03:59:05;2.9;;;1.7;;
53674;SDS011;39574;50.534;8.500;2022-07-12T04:04:04;2.8;;;1.6;;
53674;SDS011;39574;50.534;8.500;2022-07-12T04:09:03;2.6;;;1.7;;
53674;SDS011;39574;50.534;8.500;2022-07-12T04:14:02;2.7;;;1.8;;
53674;SDS011;39574;50.534;8.500;2022-07-12T04:19:01;4.3;;;1.9;;
53674;SDS011;39574;50.534;8.500;2022-07-12T04:24:00;4.0;;;1.9;;
53674;SDS011;39574;50.534;8.500;2022-07-12T04:28:59;3.5;;;1.9;;
53674;SDS011;39574;50.534;8.500;2022-07-12T04:33:58;3.3;;;1.9;;
53674;SDS011;39574;50.534;8.500;2022-07-12T04:38:58;3.0;;;1.9;;
53674;SDS011;39574;50.534;8.500;2022-07-12T04:43:57;3.2;;;1.9;;
53674;SDS011;39574;50.534;8.500;2022-07-12T04:48:56;2.9;;;1.9;;
53674;SDS011;39574;50.534;8.500;2022-07-12T04:53:55;3.3;;;1.9;;
53674;SDS011;39574;50.534;8.500;2022-07-12T04:58:54;3.4;;;1.9;;
53674;SDS011;39574;50.534;8.500;2022-07-12T05:03:54;3.7;;;1.9;;
53674;SDS011;39574;50.534;8.500;2022-07-12T05:08:53;3.6;;;2.0;;
53674;SDS011;39574;50.534;8.500;2022-07-12T05:13:52;3.5;;;2.1;;
53674;SDS011;39574;50.534;8.500;2022-07-12T05:18:51;3.3;;;2.0;;
53674;SDS011;39574;50.534;8.500;2022-07-12T05:23:50;3.5;;;2.0;;
53674;SDS011;39574;50.534;8.500;2022-07-12T05:33:49;4.1;;;2.2;;
53674;SDS011;39574;50.534;8.500;2022-07-12T05:38:48;3.6;;;2.2;;
53674;SDS011;39574;50.534;8.500;2022-07-12T05:43:47;3.5;;;2.2;;
53674;SDS011;39574;50.534;8.500;2022-07-12T05:48:46;3.5;;;2.5;;
53674;SDS011;39574;50.534;8.500;2022-07-12T05:53:46;3.3;;;2.5;;
53674;SDS011;39574;50.534;8.500;2022-07-12T05:58:45;3.8;;;2.6;;
53674;SDS011;39574;50.534;8.500;2022-07-12T06:03:44;3.9;;;2.7;;
53674;SDS011;39574;50.534;8.500;2022-07-12T06:08:43;3.8;;;2.7;;
53674;SDS011;39574;50.534;8.500;2022-07-12T06:13:42;3.5;;;2.6;;
53674;SDS011;39574;50.534;8.500;2022-07-12T06:18:42;3.2;;;2.5;;
53674;SDS011;39574;50.534;8.500;2022-07-12T06:23:41;3.2;;;2.4;;
53674;SDS011;39574;50.534;8.500;2022-07-12T06:28:40;2.9;;;2.2;;
53674;SDS011;39574;50.534;8.500;2022-07-12T06:33:40;3.7;;;2.4;;
53674;SDS011;39574;50.534;8.500;2022-07-12T06:38:39;4.0;;;2.4;;
53674;SDS011;39574;50.534;8.500;2022-07-12T06:43:39;4.0;;;2.5;;
53674;SDS011;39574;50.534;8.500;2022-07-12T06:48:38;3.9;;;2.4;;
53674;SDS011;39574;50.534;8.500;2022-07-12T06:53:37;3.7;;;2.4;;
53674;SDS011;39574;50.534;8.500;2022-07-12T06:58:37;3.3;;;2.4;;
53674;SDS011;39574;50.534;8.500;2022-07-12T07:03:36;3.2;;;2.5;;
53674;SDS011;39574;50.534;8.500;2022-07-12T07:08:36;3.4;;;2.5;;
53674;SDS011;39574;50.534;8.500;2022-07-12T07:13:35;3.2;;;2.5;;
53674;SDS011;39574;50.534;8.500;2022-07-12T07:18:34;3.3;;;2.4;;
53674;SDS011;39574;50.534;8.500;2022-07-12T07:23:34;3.8;;;2.5;;
53674;SDS011;39574;50.534;8.500;2022-07-12T07:28:33;3.7;;;2.4;;
53674;SDS011;39574;50.534;8.500;2022-07-12T07:33:33;3.3;;;2.3;;
53674;SDS011;39574;50.534;8.500;2022-07-12T07:38:32;3.3;;;2.0;;
53674;SDS011;39574;50.534;8.500;2022-07-12T07:43:32;2.8;;;1.9;;
53674;SDS011;39574;50.534;8.500;2022-07-12T07:48:31;2.4;;;1.7;;
53674;SDS011;39574;50.534;8.500;2022-07-12T07:53:31;2.5;;;1.8;;
53674;SDS011;39574;50.534;8.500;2022-07-12T07:58:30;2.3;;;1.7;;
53674;SDS011;39574;50.534;8.500;2022-07-12T08:03:30;2.2;;;1.7;;
53674;SDS011;39574;50.534;8.500;2022-07-12T08:08:29;2.1;;;1.7;;
53674;SDS011;39574;50.534;8.500;2022-07-12T08:13:29;1.8;;;1.5;;
53674;SDS011;39574;50.534;8.500;2022-07-12T08:18:28;1.8;;;1.3;;
53674;SDS011;39574;50.534;8.500;2022-07-12T08:23:28;1.5;;;1.1;;
53674;SDS011;39574;50.534;8.500;2022-07-12T08:28:27;1.4;;;1.0;;
53674;SDS011;39574;50.534;8.500;2022-07-12T08:33:27;2.4;;;1.2;;
53674;SDS011;39574;50.534;8.500;2022-07-12T08:38:26;2.3;;;1.2;;
53674;SDS011;39574;50.534;8.500;2022-07-12T08:43:26;2.0;;;1.1;;
53674;SDS011;39574;50.534;8.500;2022-07-12T08:48:26;1.8;;;1.0;;
53674;SDS011;39574;50.534;8.500;2022-07-12T08:53:26;2.0;;;0.9;;
53674;SDS011;39574;50.534;8.500;2022-07-12T08:58:25;1.8;;;0.9;;
53674;SDS011;39574;50.534;8.500;2022-07-12T09:03:24;1.6;;;0.9;;
53674;SDS011;39574;50.534;8.500;2022-07-12T09:08:25;1.5;;;0.9;;
53674;SDS011;39574;50.534;8.500;2022-07-12T09:13:55;1.3;;;0.9;;
53674;SDS011;39574;50.534;8.500;2022-07-12T09:18:24;1.4;;;1.0;;
53674;SDS011;39574;50.534;8.500;2022-07-12T09:23:23;1.3;;;1.0;;
53674;SDS011;39574;50.534;8.500;2022-07-12T09:28:23;1.4;;;0.9;;
53674;SDS011;39574;50.534;8.500;2022-07-12T09:33:23;1.3;;;0.9;;
53674;SDS011;39574;50.534;8.500;2022-07-12T09:38:23;1.1;;;0.7;;
53674;SDS011;39574;50.534;8.500;2022-07-12T09:43:23;1.2;;;0.7;;
53674;SDS011;39574;50.534;8.500;2022-07-12T09:48:22;1.1;;;0.7;;
53674;SDS011;39574;50.534;8.500;2022-07-12T09:53:22;1.1;;;0.7;;
53674;SDS011;39574;50.534;8.500;2022-07-12T09:58:22;0.9;;;0.6;;
53674;SDS011;39574;50.534;8.500;2022-07-12T10:03:22;1.1;;;0.6;;
53674;SDS011;39574;50.534;8.500;2022-07-12T10:08:21;1.4;;;0.6;;
53674;SDS011;39574;50.534;8.500;2022-07-12T10:13:21;1.9;;;0.7;;
53674;SDS011;39574;50.534;8.500;2022-07-12T10:18:21;1.6;;;0.7;;
53674;SDS011;39574;50.534;8.500;2022-07-12T10:23:29;1.3;;;0.7;;
53674;SDS011;39574;50.534;8.500;2022-07-12T10:28:20;1.2;;;0.7;;
53674;SDS011;39574;50.534;8.500;2022-07-12T10:33:20;2.1;;;0.7;;
53674;SDS011;39574;50.534;8.500;2022-07-12T10:38:20;2.3;;;0.8;;
53674;SDS011;39574;50.534;8.500;2022-07-12T10:43:21;2.1;;;0.8;;
53674;SDS011;39574;50.534;8.500;2022-07-12T10:48:21;1.8;;;0.8;;
53674;SDS011;39574;50.534;8.500;2022-07-12T10:53:20;1.3;;;0.7;;
53674;SDS011;39574;50.534;8.500;2022-07-12T10:58:27;1.1;;;0.7;;
53674;SDS011;39574;50.534;8.500;2022-07-12T11:03:19;1.8;;;0.7;;
53674;SDS011;39574;50.534;8.500;2022-07-12T11:08:19;1.6;;;0.8;;
53674;SDS011;39574;50.534;8.500;2022-07-12T11:13:19;1.9;;;0.8;;
53674;SDS011;39574;50.534;8.500;2022-07-12T11:18:26;1.7;;;0.8;;
53674;SDS011;39574;50.534;8.500;2022-07-12T11:23:19;1.8;;;0.8;;
53674;SDS011;39574;50.534;8.500;2022-07-12T11:28:18;1.5;;;0.8;;
53674;SDS011;39574;50.534;8.500;2022-07-12T11:33:18;1.7;;;0.8;;
53674;SDS011;39574;50.534;8.500;2022-07-12T11:38:23;1.4;;;0.7;;
53674;SDS011;39574;50.534;8.500;2022-07-12T11:43:18;1.3;;;0.7;;
53674;SDS011;39574;50.534;8.500;2022-07-12T11:48:18;1.6;;;0.8;;
53674;SDS011;39574;50.534;8.500;2022-07-12T11:53:18;1.3;;;0.7;;
53674;SDS011;39574;50.534;8.500;2022-07-12T11:58:18;2.3;;;0.8;;
53674;SDS011;39574;50.534;8.500;2022-07-12T12:03:18;2.0;;;0.8;;
53674;SDS011;39574;50.534;8.500;2022-07-12T12:08:18;1.6;;;0.7;;
53674;SDS011;39574;50.534;8.500;2022-07-12T12:13:18;1.6;;;0.8;;
53674;SDS011;39574;50.534;8.500;2022-07-12T12:18:27;1.3;;;0.8;;
53674;SDS011;39574;50.534;8.500;2022-07-12T12:23:19;1.2;;;0.7;;
53674;SDS011;39574;50.534;8.500;2022-07-12T12:28:18;1.3;;;0.7;;
53674;SDS011;39574;50.534;8.500;2022-07-12T12:33:33;1.6;;;0.8;;
53674;SDS011;39574;50.534;8.500;2022-07-12T12:38:18;1.7;;;0.8;;
53674;SDS011;39574;50.534;8.500;2022-07-12T12:48:19;2.0;;;0.8;;
53674;SDS011;39574;50.534;8.500;2022-07-12T12:53:19;1.7;;;0.8;;
53674;SDS011;39574;50.534;8.500;2022-07-12T12:58:19;1.5;;;0.8;;
53674;SDS011;39574;50.534;8.500;2022-07-12T13:03:19;1.4;;;0.7;;
53674;SDS011;39574;50.534;8.500;2022-07-12T13:08:18;1.8;;;0.7;;
53674;SDS011;39574;50.534;8.500;2022-07-12T13:13:18;1.7;;;0.7;;
53674;SDS011;39574;50.534;8.500;2022-07-12T13:18:19;1.6;;;0.7;;
53674;SDS011;39574;50.534;8.500;2022-07-12T13:23:19;1.8;;;0.7;;
53674;SDS011;39574;50.534;8.500;2022-07-12T13:28:19;1.4;;;0.7;;
53674;SDS011;39574;50.534;8.500;2022-07-12T13:33:19;1.2;;;0.7;;
53674;SDS011;39574;50.534;8.500;2022-07-12T13:38:19;1.1;;;0.6;;
53674;SDS011;39574;50.534;8.500;2022-07-12T13:43:19;1.0;;;0.7;;
53674;SDS011;39574;50.534;8.500;2022-07-12T13:48:19;1.0;;;0.6;;
53674;SDS011;39574;50.534;8.500;2022-07-12T13:53:19;1.2;;;0.7;;
53674;SDS011;39574;50.534;8.500;2022-07-12T13:58:19;1.5;;;0.7;;
53674;SDS011;39574;50.534;8.500;2022-07-12T14:03:19;1.4;;;0.7;;
53674;SDS011;39574;50.534;8.500;2022-07-12T14:08:19;1.4;;;0.7;;
53674;SDS011;39574;50.534;8.500;2022-07-12T14:13:20;1.8;;;0.7;;
53674;SDS011;39574;50.534;8.500;2022-07-12T14:18:19;2.0;;;0.8;;
53674;SDS011;39574;50.534;8.500;2022-07-12T14:23:19;2.8;;;0.8;;
53674;SDS011;39574;50.534;8.500;2022-07-12T14:28:19;2.4;;;0.8;;
53674;SDS011;39574;50.534;8.500;2022-07-12T14:33:20;1.9;;;0.8;;
53674;SDS011;39574;50.534;8.500;2022-07-12T14:38:20;1.5;;;0.7;;
53674;SDS011;39574;50.534;8.500;2022-07-12T14:43:20;1.4;;;0.7;;
53674;SDS011;39574;50.534;8.500;2022-07-12T14:48:20;1.9;;;0.7;;
53674;SDS011;39574;50.534;8.500;2022-07-12T14:53:20;1.8;;;0.7;;
53674;SDS011;39574;50.534;8.500;2022-07-12T14:58:20;2.1;;;0.7;;
53674;SDS011;39574;50.534;8.500;2022-07-12T15:03:20;1.7;;;0.7;;
53674;SDS011;39574;50.534;8.500;2022-07-12T15:08:20;1.2;;;0.6;;
53674;SDS011;39574;50.534;8.500;2022-07-12T15:13:20;1.7;;;1.0;;
53674;SDS011;39574;50.534;8.500;2022-07-12T15:18:20;1.8;;;1.0;;
53674;SDS011;39574;50.534;8.500;2022-07-12T15:23:20;1.6;;;0.9;;
53674;SDS011;39574;50.534;8.500;2022-07-12T15:28:20;1.3;;;0.8;;
53674;SDS011;39574;50.534;8.500;2022-07-12T15:33:21;1.0;;;0.6;;
53674;SDS011;39574;50.534;8.500;2022-07-12T15:38:20;0.8;;;0.5;;
53674;SDS011;39574;50.534;8.500;2022-07-12T15:43:20;1.4;;;0.6;;
53674;SDS011;39574;50.534;8.500;2022-07-12T15:48:21;1.3;;;0.7;;
53674;SDS011;39574;50.534;8.500;2022-07-12T15:53:21;1.1;;;0.7;;
53674;SDS011;39574;50.534;8.500;2022-07-12T15:58:22;0.9;;;0.6;;
53674;SDS011;39574;50.534;8.500;2022-07-12T16:03:21;0.7;;;0.6;;
53674;SDS011;39574;50.534;8.500;2022-07-12T16:08:21;0.9;;;0.6;;
53674;SDS011;39574;50.534;8.500;2022-07-12T16:13:21;1.2;;;0.7;;
53674;SDS011;39574;50.534;8.500;2022-07-12T16:18:21;1.5;;;0.9;;
53674;SDS011;39574;50.534;8.500;2022-07-12T16:23:21;1.3;;;0.8;;
53674;SDS011;39574;50.534;8.500;2022-07-12T16:28:21;1.5;;;0.8;;
53674;SDS011;39574;50.534;8.500;2022-07-12T16:33:21;1.4;;;0.7;;
53674;SDS011;39574;50.534;8.500;2022-07-12T16:38:21;1.6;;;0.7;;
53674;SDS011;39574;50.534;8.500;2022-07-12T16:43:21;1.5;;;0.7;;
53674;SDS011;39574;50.534;8.500;2022-07-12T16:48:21;1.3;;;0.7;;
53674;SDS011;39574;50.534;8.500;2022-07-12T16:53:21;1.6;;;0.7;;
53674;SDS011;39574;50.534;8.500;2022-07-12T16:58:21;1.5;;;0.6;;
53674;SDS011;39574;50.534;8.500;2022-07-12T17:03:21;1.4;;;0.6;;
53674;SDS011;39574;50.534;8.500;2022-07-12T17:08:21;1.5;;;0.6;;
53674;SDS011;39574;50.534;8.500;2022-07-12T17:13:21;1.7;;;0.7;;
53674;SDS011;39574;50.534;8.500;2022-07-12T17:18:21;1.6;;;0.7;;
53674;SDS011;39574;50.534;8.500;2022-07-12T17:23:21;1.5;;;0.7;;
53674;SDS011;39574;50.534;8.500;2022-07-12T17:28:21;2.2;;;1.0;;
53674;SDS011;39574;50.534;8.500;2022-07-12T17:33:21;1.9;;;0.9;;
53674;SDS011;39574;50.534;8.500;2022-07-12T17:38:21;1.6;;;0.8;;
53674;SDS011;39574;50.534;8.500;2022-07-12T17:43:21;1.7;;;0.7;;
53674;SDS011;39574;50.534;8.500;2022-07-12T17:48:21;1.6;;;0.6;;
53674;SDS011;39574;50.534;8.500;2022-07-12T17:53:21;1.7;;;0.7;;
53674;SDS011;39574;50.534;8.500;2022-07-12T17:58:20;1.6;;;0.7;;
53674;SDS011;39574;50.534;8.500;2022-07-12T18:03:20;1.8;;;0.7;;
53674;SDS011;39574;50.534;8.500;2022-07-12T18:08:20;1.7;;;0.7;;
53674;SDS011;39574;50.534;8.500;2022-07-12T18:13:20;1.7;;;0.7;;
53674;SDS011;39574;50.534;8.500;2022-07-12T18:18:20;1.4;;;0.7;;
53674;SDS011;39574;50.534;8.500;2022-07-12T18:23:20;1.8;;;0.8;;
53674;SDS011;39574;50.534;8.500;2022-07-12T18:28:19;1.9;;;0.9;;
53674;SDS011;39574;50.534;8.500;2022-07-12T18:33:19;2.6;;;1.1;;
53674;SDS011;39574;50.534;8.500;2022-07-12T18:38:19;2.7;;;1.0;;
53674;SDS011;39574;50.534;8.500;2022-07-12T18:43:19;2.1;;;0.9;;
53674;SDS011;39574;50.534;8.500;2022-07-12T18:48:19;1.7;;;0.7;;
53674;SDS011;39574;50.534;8.500;2022-07-12T18:53:18;1.9;;;0.8;;
53674;SDS011;39574;50.534;8.500;2022-07-12T18:58:18;1.7;;;0.8;;
53674;SDS011;39574;50.534;8.500;2022-07-12T19:03:18;1.9;;;0.9;;
53674;SDS011;39574;50.534;8.500;2022-07-12T19:08:18;2.7;;;0.9;;
53674;SDS011;39574;50.534;8.500;2022-07-12T19:13:17;2.4;;;0.9;;
53674;SDS011;39574;50.534;8.500;2022-07-12T19:18:17;2.2;;;1.0;;
53674;SDS011;39574;50.534;8.500;2022-07-12T19:23:17;1.9;;;1.0;;
53674;SDS011;39574;50.534;8.500;2022-07-12T19:28:17;2.1;;;1.1;;
53674;SDS011;39574;50.534;8.500;2022-07-12T19:33:17;2.0;;;1.1;;
53674;SDS011;39574;50.534;8.500;2022-07-12T19:43:16;1.9;;;1.1;;
53674;SDS011;39574;50.534;8.500;2022-07-12T19:48:16;1.7;;;1.0;;
53674;SDS011;39574;50.534;8.500;2022-07-12T19:53:15;1.8;;;0.9;;
53674;SDS011;39574;50.534;8.500;2022-07-12T19:58:15;1.7;;;1.0;;
53674;SDS011;39574;50.534;8.500;2022-07-12T20:03:15;1.6;;;1.0;;
53674;SDS011;39574;50.534;8.500;2022-07-12T20:08:15;2.6;;;1.1;;
53674;SDS011;39574;50.534;8.500;2022-07-12T20:13:15;2.7;;;1.1;;
53674;SDS011;39574;50.534;8.500;2022-07-12T20:18:14;2.4;;;1.1;;
53674;SDS011;39574;50.534;8.500;2022-07-12T20:23:14;2.1;;;1.0;;
53674;SDS011;39574;50.534;8.500;2022-07-12T20:28:13;2.1;;;1.1;;
53674;SDS011;39574;50.534;8.500;2022-07-12T20:33:13;2.3;;;1.1;;
53674;SDS011;39574;50.534;8.500;2022-07-12T20:38:13;2.5;;;1.1;;
53674;SDS011;39574;50.534;8.500;2022-07-12T20:48:12;2.3;;;1.2;;
53674;SDS011;39574;50.534;8.500;2022-07-12T20:53:11;2.2;;;1.2;;
53674;SDS011;39574;50.534;8.500;2022-07-12T20:58:11;2.0;;;1.3;;
53674;SDS011;39574;50.534;8.500;2022-07-12T21:03:11;1.9;;;1.3;;
53674;SDS011;39574;50.534;8.500;2022-07-12T21:08:10;2.0;;;1.2;;
53674;SDS011;39574;50.534;8.500;2022-07-12T21:13:10;1.8;;;1.1;;
53674;SDS011;39574;50.534;8.500;2022-07-12T21:18:10;2.6;;;1.1;;
53674;SDS011;39574;50.534;8.500;2022-07-12T21:23:09;2.5;;;1.2;;
53674;SDS011;39574;50.534;8.500;2022-07-12T21:28:09;2.7;;;1.3;;
53674;SDS011;39574;50.534;8.500;2022-07-12T21:33:08;2.6;;;1.3;;
53674;SDS011;39574;50.534;8.500;2022-07-12T21:38:08;2.6;;;1.4;;
53674;SDS011;39574;50.534;8.500;2022-07-12T21:43:07;2.6;;;1.4;;
53674;SDS011;39574;50.534;8.500;2022-07-12T21:48:07;2.4;;;1.4;;
53674;SDS011;39574;50.534;8.500;2022-07-12T21:53:06;2.1;;;1.4;;
53674;SDS011;39574;50.534;8.500;2022-07-12T21:58:05;1.8;;;1.2;;
53674;SDS011;39574;50.534;8.500;2022-07-12T22:03:05;1.8;;;1.3;;
53674;SDS011;39574;50.534;8.500;2022-07-12T22:08:04;2.0;;;1.3;;
53674;SDS011;39574;50.534;8.500;2022-07-12T22:13:04;2.5;;;1.5;;
53674;SDS011;39574;50.534;8.500;2022-07-12T22:18:03;2.4;;;1.5;;
53674;SDS011;39574;50.534;8.500;2022-07-12T22:23:03;2.3;;;1.4;;
53674;SDS011;39574;50.534;8.500;2022-07-12T22:28:02;2.5;;;1.5;;
53674;SDS011;39574;50.534;8.500;2022-07-12T22:33:02;2.3;;;1.5;;
53674;SDS011;39574;50.534;8.500;2022-07-12T22:38:01;2.5;;;1.4;;
53674;SDS011;39574;50.534;8.500;2022-07-12T22:43:01;2.6;;;1.4;;
53674;SDS011;39574;50.534;8.500;2022-07-12T22:48:00;2.9;;;1.4;;
53674;SDS011;39574;50.534;8.500;2022-07-12T22:53:00;2.7;;;1.4;;
53674;SDS011;39574;50.534;8.500;2022-07-12T22:57:59;2.4;;;1.4;;
53674;SDS011;39574;50.534;8.500;2022-07-12T23:02:59;2.4;;;1.3;;
53674;SDS011;39574;50.534;8.500;2022-07-12T23:07:58;2.5;;;1.4;;
53674;SDS011;39574;50.534;8.500;2022-07-12T23:12:58;2.3;;;1.4;;
53674;SDS011;39574;50.534;8.500;2022-07-12T23:17:57;2.4;;;1.4;;
53674;SDS011;39574;50.534;8.500;2022-07-12T23:22:57;2.4;;;1.4;;
53674;SDS011;39574;50.534;8.500;2022-07-12T23:27:56;2.5;;;1.5;;
53674;SDS011;39574;50.534;8.500;2022-07-12T23:32:56;2.6;;;1.4;;
53674;SDS011;39574;50.534;8.500;2022-07-12T23:37:55;2.8;;;1.5;;
53674;SDS011;39574;50.534;8.500;2022-07-12T23:42:55;2.8;;;1.5;;
53674;SDS011;39574;50.534;8.500;2022-07-12T23:47:54;2.5;;;1.4;;
53674;SDS011;39574;50.534;8.500;2022-07-12T23:52:54;2.4;;;1.4;;
53674;SDS011;39574;50.534;8.500;2022-07-12T23:57:53;2.1;;;1.4;;
